sensor_id;sensor_type;location;lat;lon;timestamp;pressure;altitude;pressure_sealevel;temperature;humidity
10135;BME280;5107;48.850;8.924;2024-03-23T00:53:42;96016.75;;;10.19;67.43
10135;BME280;5107;48.850;8.924;2024-03-23T00:56:08;96021.88;;;10.13;67.99
10135;BME280;5107;48.850;8.924;2024-03-23T00:58:33;96017.19;;;10.08;68.19
10135;BME280;5107;48.850;8.924;2024-03-23T01:00:58;96006.44;;;10.03;68.67
10135;BME280;5107;48.850;8.924;2024-03-23T01:03:24;95996.28;;;10.00;69.18
10135;BME280;5107;48.850;8.924;2024-03-23T01:05:49;95984.50;;;9.96;69.07
10135;BME280;5107;48.850;8.924;2024-03-23T01:08:14;95977.63;;;9.95;69.33
10135;BME280;5107;48.850;8.924;2024-03-23T01:10:40;95980.25;;;9.95;69.21
10135;BME280;5107;48.850;8.924;2024-03-23T01:13:05;95980.69;;;9.99;69.03
10135;BME280;5107;48.850;8.924;2024-03-23T01:15:31;95986.00;;;10.05;69.67
10135;BME280;5107;48.850;8.924;2024-03-23T01:17:57;95971.25;;;10.04;70.31
10135;BME280;5107;48.850;8.924;2024-03-23T01:20:22;95966.44;;;10.08;70.20
10135;BME280;5107;48.850;8.924;2024-03-23T01:22:48;95970.13;;;10.13;70.14
10135;BME280;5107;48.850;8.924;2024-03-23T01:25:13;95962.88;;;10.15;70.16
10135;BME280;5107;48.850;8.924;2024-03-23T01:27:38;95953.84;;;10.18;70.07
10135;BME280;5107;48.850;8.924;2024-03-23T01:30:04;95950.72;;;10.14;70.17
10135;BME280;5107;48.850;8.924;2024-03-23T01:32:29;95946.13;;;10.16;69.77
10135;BME280;5107;48.850;8.924;2024-03-23T01:34:55;95940.72;;;10.18;69.57
10135;BME280;5107;48.850;8.924;2024-03-23T01:37:26;95945.22;;;10.09;70.42
10135;BME280;5107;48.850;8.924;2024-03-23T01:39:54;95934.53;;;10.11;70.95
10135;BME280;5107;48.850;8.924;2024-03-23T01:42:20;95933.25;;;10.21;70.68
10135;BME280;5107;48.850;8.924;2024-03-23T01:44:45;95926.97;;;10.37;69.61
10135;BME280;5107;48.850;8.924;2024-03-23T01:47:11;95927.19;;;10.42;69.78
10135;BME280;5107;48.850;8.924;2024-03-23T01:49:36;95916.69;;;10.42;69.67
10135;BME280;5107;48.850;8.924;2024-03-23T01:52:02;95917.13;;;10.46;69.62
10135;BME280;5107;48.850;8.924;2024-03-23T01:54:29;95904.38;;;10.49;69.74
10135;BME280;5107;48.850;8.924;2024-03-23T01:56:55;95908.66;;;10.50;69.92
10135;BME280;5107;48.850;8.924;2024-03-23T01:59:21;95917.13;;;10.46;70.40
10135;BME280;5107;48.850;8.924;2024-03-23T02:01:46;95913.09;;;10.50;70.49
10135;BME280;5107;48.850;8.924;2024-03-23T02:04:11;95909.34;;;10.59;69.92
10135;BME280;5107;48.850;8.924;2024-03-23T02:06:37;95901.06;;;10.62;69.95
10135;BME280;5107;48.850;8.924;2024-03-23T02:09:02;95896.00;;;10.60;69.77
10135;BME280;5107;48.850;8.924;2024-03-23T02:11:28;95897.19;;;10.58;70.50
10135;BME280;5107;48.850;8.924;2024-03-23T02:13:54;95898.81;;;10.59;70.79
10135;BME280;5107;48.850;8.924;2024-03-23T02:16:19;95899.03;;;10.64;70.47
10135;BME280;5107;48.850;8.924;2024-03-23T02:18:44;95895.41;;;10.65;70.64
10135;BME280;5107;48.850;8.924;2024-03-23T02:21:10;95889.41;;;10.71;70.07
10135;BME280;5107;48.850;8.924;2024-03-23T02:23:35;95891.22;;;10.71;70.28
10135;BME280;5107;48.850;8.924;2024-03-23T02:26:00;95889.28;;;10.79;70.33
10135;BME280;5107;48.850;8.924;2024-03-23T02:28:26;95885.91;;;10.92;69.82
10135;BME280;5107;48.850;8.924;2024-03-23T02:30:52;95875.00;;;10.95;69.54
10135;BME280;5107;48.850;8.924;2024-03-23T02:33:17;95875.00;;;10.95;69.46
10135;BME280;5107;48.850;8.924;2024-03-23T02:35:45;95869.94;;;10.93;69.86
10135;BME280;5107;48.850;8.924;2024-03-23T02:38:11;95877.19;;;10.91;70.14
10135;BME280;5107;48.850;8.924;2024-03-23T02:40:36;95867.44;;;10.85;70.35
10135;BME280;5107;48.850;8.924;2024-03-23T02:43:02;95872.88;;;10.84;70.47
10135;BME280;5107;48.850;8.924;2024-03-23T02:45:28;95883.88;;;10.87;70.54
10135;BME280;5107;48.850;8.924;2024-03-23T02:47:53;95877.41;;;10.96;70.36
10135;BME280;5107;48.850;8.924;2024-03-23T02:50:19;95878.28;;;11.03;70.08
10135;BME280;5107;48.850;8.924;2024-03-23T02:52:45;95871.00;;;11.06;69.68
10135;BME280;5107;48.850;8.924;2024-03-23T02:55:10;95867.34;;;11.07;70.12
10135;BME280;5107;48.850;8.924;2024-03-23T02:57:35;95869.78;;;11.01;70.02
10135;BME280;5107;48.850;8.924;2024-03-23T03:00:01;95864.84;;;10.92;70.82
10135;BME280;5107;48.850;8.924;2024-03-23T03:02:26;95873.25;;;10.81;71.34
10135;BME280;5107;48.850;8.924;2024-03-23T03:04:51;95853.00;;;10.75;71.06
10135;BME280;5107;48.850;8.924;2024-03-23T03:07:17;95844.88;;;10.70;71.47
10135;BME280;5107;48.850;8.924;2024-03-23T03:09:42;95848.47;;;10.62;72.19
10135;BME280;5107;48.850;8.924;2024-03-23T03:12:07;95839.50;;;10.56;72.46
10135;BME280;5107;48.850;8.924;2024-03-23T03:14:36;95843.28;;;10.47;72.80
10135;BME280;5107;48.850;8.924;2024-03-23T03:17:01;95841.84;;;10.45;72.75
10135;BME280;5107;48.850;8.924;2024-03-23T03:19:27;95835.59;;;10.46;72.99
10135;BME280;5107;48.850;8.924;2024-03-23T03:21:52;95843.09;;;10.49;72.71
10135;BME280;5107;48.850;8.924;2024-03-23T03:24:18;95844.47;;;10.45;73.41
10135;BME280;5107;48.850;8.924;2024-03-23T03:26:43;95847.94;;;10.45;73.13
10135;BME280;5107;48.850;8.924;2024-03-23T03:29:09;95846.47;;;10.43;73.26
10135;BME280;5107;48.850;8.924;2024-03-23T03:31:38;95845.53;;;10.50;72.84
10135;BME280;5107;48.850;8.924;2024-03-23T03:34:03;95833.63;;;10.54;72.79
10135;BME280;5107;48.850;8.924;2024-03-23T03:36:29;95837.06;;;10.55;72.83
10135;BME280;5107;48.850;8.924;2024-03-23T03:38:54;95830.66;;;10.64;72.58
10135;BME280;5107;48.850;8.924;2024-03-23T03:41:19;95828.69;;;10.73;72.13
10135;BME280;5107;48.850;8.924;2024-03-23T03:43:45;95803.88;;;10.54;73.18
10135;BME280;5107;48.850;8.924;2024-03-23T03:46:10;95794.22;;;10.61;72.73
10135;BME280;5107;48.850;8.924;2024-03-23T03:48:36;95793.44;;;10.67;72.14
10135;BME280;5107;48.850;8.924;2024-03-23T03:51:01;95789.38;;;10.64;72.15
10135;BME280;5107;48.850;8.924;2024-03-23T03:53:27;95789.81;;;10.68;72.42
10135;BME280;5107;48.850;8.924;2024-03-23T03:55:52;95778.47;;;10.68;72.78
10135;BME280;5107;48.850;8.924;2024-03-23T03:58:17;95772.44;;;10.74;72.63
10135;BME280;5107;48.850;8.924;2024-03-23T04:00:43;95770.22;;;10.77;72.50
10135;BME280;5107;48.850;8.924;2024-03-23T04:03:08;95776.69;;;10.75;73.08
10135;BME280;5107;48.850;8.924;2024-03-23T04:05:33;95781.28;;;10.66;73.13
10135;BME280;5107;48.850;8.924;2024-03-23T04:07:58;95803.09;;;10.60;74.54
10135;BME280;5107;48.850;8.924;2024-03-23T04:10:24;95826.72;;;10.81;75.87
10135;BME280;5107;48.850;8.924;2024-03-23T04:12:50;95827.22;;;10.98;79.32
10135;BME280;5107;48.850;8.924;2024-03-23T04:15:15;95825.66;;;11.03;81.79
10135;BME280;5107;48.850;8.924;2024-03-23T04:17:41;95819.13;;;10.99;83.83
10135;BME280;5107;48.850;8.924;2024-03-23T04:20:08;95824.91;;;10.82;86.17
10135;BME280;5107;48.850;8.924;2024-03-23T04:22:36;95821.72;;;10.58;88.85
10135;BME280;5107;48.850;8.924;2024-03-23T04:25:02;95830.94;;;10.48;91.52
10135;BME280;5107;48.850;8.924;2024-03-23T04:27:34;95824.81;;;10.41;92.28
10135;BME280;5107;48.850;8.924;2024-03-23T04:30:00;95815.28;;;10.40;92.55
10135;BME280;5107;48.850;8.924;2024-03-23T04:32:29;95811.44;;;10.36;92.36
10135;BME280;5107;48.850;8.924;2024-03-23T04:34:55;95806.72;;;10.31;92.79
10135;BME280;5107;48.850;8.924;2024-03-23T04:37:21;95804.44;;;10.21;91.80
10135;BME280;5107;48.850;8.924;2024-03-23T04:39:46;95818.13;;;10.17;90.44
10135;BME280;5107;48.850;8.924;2024-03-23T04:42:14;95831.84;;;10.12;89.31
10135;BME280;5107;48.850;8.924;2024-03-23T04:44:40;95834.97;;;10.01;89.40
10135;BME280;5107;48.850;8.924;2024-03-23T04:47:05;95832.00;;;9.89;90.48
10135;BME280;5107;48.850;8.924;2024-03-23T04:49:33;95823.25;;;9.82;90.80
10135;BME280;5107;48.850;8.924;2024-03-23T04:51:58;95829.09;;;9.78;91.79
10135;BME280;5107;48.850;8.924;2024-03-23T04:54:24;95829.25;;;9.76;91.86
10135;BME280;5107;48.850;8.924;2024-03-23T04:56:49;95840.13;;;9.73;91.26
10135;BME280;5107;48.850;8.924;2024-03-23T04:59:14;95828.81;;;9.73;91.71
10135;BME280;5107;48.850;8.924;2024-03-23T05:01:40;95830.25;;;9.75;90.89
10135;BME280;5107;48.850;8.924;2024-03-23T05:04:07;95835.97;;;9.79;91.30
10135;BME280;5107;48.850;8.924;2024-03-23T05:06:32;95842.00;;;9.79;90.66
10135;BME280;5107;48.850;8.924;2024-03-23T05:08:59;95848.84;;;9.74;90.98
10135;BME280;5107;48.850;8.924;2024-03-23T05:11:24;95851.09;;;9.77;91.67
10135;BME280;5107;48.850;8.924;2024-03-23T05:13:50;95860.16;;;9.74;90.53
10135;BME280;5107;48.850;8.924;2024-03-23T05:16:15;95854.38;;;9.64;89.42
10135;BME280;5107;48.850;8.924;2024-03-23T05:18:40;95855.59;;;9.62;89.64
10135;BME280;5107;48.850;8.924;2024-03-23T05:21:05;95841.34;;;9.56;89.10
10135;BME280;5107;48.850;8.924;2024-03-23T05:23:31;95852.25;;;9.53;88.82
10135;BME280;5107;48.850;8.924;2024-03-23T05:25:56;95864.28;;;9.47;89.10
10135;BME280;5107;48.850;8.924;2024-03-23T05:28:22;95868.13;;;9.45;90.10
10135;BME280;5107;48.850;8.924;2024-03-23T05:30:54;95859.78;;;9.41;90.61
10135;BME280;5107;48.850;8.924;2024-03-23T05:33:20;95870.19;;;9.35;91.06
10135;BME280;5107;48.850;8.924;2024-03-23T05:35:45;95869.66;;;9.25;92.27
10135;BME280;5107;48.850;8.924;2024-03-23T05:38:11;95880.59;;;9.13;92.73
10135;BME280;5107;48.850;8.924;2024-03-23T05:40:36;95878.06;;;9.05;93.40
10135;BME280;5107;48.850;8.924;2024-03-23T05:43:05;95882.25;;;9.00;92.42
10135;BME280;5107;48.850;8.924;2024-03-23T05:45:30;95885.22;;;8.97;92.11
10135;BME280;5107;48.850;8.924;2024-03-23T05:47:56;95898.25;;;8.90;91.90
10135;BME280;5107;48.850;8.924;2024-03-23T05:50:22;95898.50;;;8.81;90.98
10135;BME280;5107;48.850;8.924;2024-03-23T05:52:49;95898.50;;;8.81;90.86
10135;BME280;5107;48.850;8.924;2024-03-23T05:55:14;95904.28;;;8.76;89.97
10135;BME280;5107;48.850;8.924;2024-03-23T05:57:39;95894.16;;;8.73;89.73
10135;BME280;5107;48.850;8.924;2024-03-23T06:00:06;95897.59;;;8.73;90.20
10135;BME280;5107;48.850;8.924;2024-03-23T06:02:35;95904.38;;;8.68;90.29
10135;BME280;5107;48.850;8.924;2024-03-23T06:05:01;95903.25;;;8.62;90.14
10135;BME280;5107;48.850;8.924;2024-03-23T06:07:27;95913.31;;;8.59;90.01
10135;BME280;5107;48.850;8.924;2024-03-23T06:09:52;95912.56;;;8.50;89.89
10135;BME280;5107;48.850;8.924;2024-03-23T06:12:18;95928.47;;;8.49;90.26
10135;BME280;5107;48.850;8.924;2024-03-23T06:14:43;95936.88;;;8.44;90.00
10135;BME280;5107;48.850;8.924;2024-03-23T06:17:09;95932.59;;;8.43;89.43
10135;BME280;5107;48.850;8.924;2024-03-23T06:19:37;95923.56;;;8.46;89.82
10135;BME280;5107;48.850;8.924;2024-03-23T06:22:02;95924.81;;;8.35;89.11
10135;BME280;5107;48.850;8.924;2024-03-23T06:24:27;95927.78;;;8.24;88.84
10135;BME280;5107;48.850;8.924;2024-03-23T06:26:53;95950.28;;;8.18;88.99
10135;BME280;5107;48.850;8.924;2024-03-23T06:29:21;95962.44;;;8.11;89.44
10135;BME280;5107;48.850;8.924;2024-03-23T06:31:53;95974.78;;;8.03;88.25
10135;BME280;5107;48.850;8.924;2024-03-23T06:34:18;95972.78;;;8.05;88.58
10135;BME280;5107;48.850;8.924;2024-03-23T06:36:44;95981.94;;;8.09;88.98
10135;BME280;5107;48.850;8.924;2024-03-23T06:39:09;95987.84;;;8.11;89.83
10135;BME280;5107;48.850;8.924;2024-03-23T06:41:37;95998.41;;;7.94;88.58
10135;BME280;5107;48.850;8.924;2024-03-23T06:44:05;96002.38;;;7.82;89.27
10135;BME280;5107;48.850;8.924;2024-03-23T06:46:30;96017.38;;;7.88;90.04
10135;BME280;5107;48.850;8.924;2024-03-23T06:48:56;96008.38;;;7.91;90.06
10135;BME280;5107;48.850;8.924;2024-03-23T06:51:21;96016.38;;;7.97;89.65
10135;BME280;5107;48.850;8.924;2024-03-23T06:53:47;96025.38;;;8.03;89.57
10135;BME280;5107;48.850;8.924;2024-03-23T06:56:12;96031.41;;;8.04;88.94
10135;BME280;5107;48.850;8.924;2024-03-23T06:58:37;96021.59;;;7.97;89.00
10135;BME280;5107;48.850;8.924;2024-03-23T07:01:03;96036.88;;;8.25;90.50
10135;BME280;5107;48.850;8.924;2024-03-23T07:03:28;96049.56;;;8.05;88.24
10135;BME280;5107;48.850;8.924;2024-03-23T07:05:57;96035.56;;;7.90;88.49
10135;BME280;5107;48.850;8.924;2024-03-23T07:08:23;96043.94;;;7.85;89.09
10135;BME280;5107;48.850;8.924;2024-03-23T07:10:48;96047.53;;;7.84;89.76
10135;BME280;5107;48.850;8.924;2024-03-23T07:13:13;96055.44;;;7.76;89.84
10135;BME280;5107;48.850;8.924;2024-03-23T07:15:39;96058.53;;;7.72;90.15
10135;BME280;5107;48.850;8.924;2024-03-23T07:18:04;96061.53;;;7.60;89.93
10135;BME280;5107;48.850;8.924;2024-03-23T07:20:30;96062.53;;;7.51;90.50
10135;BME280;5107;48.850;8.924;2024-03-23T07:22:59;96067.09;;;7.49;91.43
10135;BME280;5107;48.850;8.924;2024-03-23T07:25:24;96060.06;;;7.50;90.28
10135;BME280;5107;48.850;8.924;2024-03-23T07:27:53;96052.19;;;7.58;89.97
10135;BME280;5107;48.850;8.924;2024-03-23T07:30:18;96057.41;;;7.66;90.01
10135;BME280;5107;48.850;8.924;2024-03-23T07:32:46;96067.59;;;7.53;90.23
10135;BME280;5107;48.850;8.924;2024-03-23T07:35:12;96080.06;;;7.35;90.51
10135;BME280;5107;48.850;8.924;2024-03-23T07:37:37;96105.56;;;7.24;91.50
10135;BME280;5107;48.850;8.924;2024-03-23T07:40:03;96101.97;;;7.26;92.67
10135;BME280;5107;48.850;8.924;2024-03-23T07:42:29;96116.03;;;7.24;91.74
10135;BME280;5107;48.850;8.924;2024-03-23T07:44:54;96125.84;;;7.14;91.83
10135;BME280;5107;48.850;8.924;2024-03-23T07:47:22;96133.03;;;7.20;92.08
10135;BME280;5107;48.850;8.924;2024-03-23T07:49:47;96138.25;;;7.20;92.35
10135;BME280;5107;48.850;8.924;2024-03-23T07:52:12;96151.69;;;7.26;93.43
10135;BME280;5107;48.850;8.924;2024-03-23T07:54:38;96140.06;;;7.28;93.18
10135;BME280;5107;48.850;8.924;2024-03-23T07:57:03;96135.00;;;7.27;93.15
10135;BME280;5107;48.850;8.924;2024-03-23T07:59:29;96141.53;;;7.22;93.14
10135;BME280;5107;48.850;8.924;2024-03-23T08:01:57;96136.66;;;7.28;93.03
10135;BME280;5107;48.850;8.924;2024-03-23T08:04:22;96141.53;;;7.31;92.18
10135;BME280;5107;48.850;8.924;2024-03-23T08:06:47;96147.72;;;7.78;92.95
10135;BME280;5107;48.850;8.924;2024-03-23T08:09:13;96158.53;;;7.75;90.79
10135;BME280;5107;48.850;8.924;2024-03-23T08:11:38;96158.66;;;7.82;90.91
10135;BME280;5107;48.850;8.924;2024-03-23T08:14:04;96163.78;;;7.67;90.02
10135;BME280;5107;48.850;8.924;2024-03-23T08:16:29;96188.31;;;7.58;89.78
10135;BME280;5107;48.850;8.924;2024-03-23T08:18:55;96197.47;;;7.70;89.82
10135;BME280;5107;48.850;8.924;2024-03-23T08:21:21;96196.84;;;7.68;89.84
10135;BME280;5107;48.850;8.924;2024-03-23T08:23:46;96195.84;;;7.85;90.42
10135;BME280;5107;48.850;8.924;2024-03-23T08:26:15;96204.31;;;7.95;89.04
10135;BME280;5107;48.850;8.924;2024-03-23T08:28:40;96198.09;;;7.96;88.21
10135;BME280;5107;48.850;8.924;2024-03-23T08:31:10;96209.75;;;7.86;88.59
10135;BME280;5107;48.850;8.924;2024-03-23T08:33:36;96225.94;;;7.97;88.99
10135;BME280;5107;48.850;8.924;2024-03-23T08:36:04;96231.13;;;8.22;88.11
10135;BME280;5107;48.850;8.924;2024-03-23T08:38:30;96239.44;;;8.58;85.66
10135;BME280;5107;48.850;8.924;2024-03-23T08:41:07;96255.16;;;8.97;83.05
10135;BME280;5107;48.850;8.924;2024-03-23T08:43:34;96244.03;;;8.95;78.88
10135;BME280;5107;48.850;8.924;2024-03-23T08:46:11;96246.72;;;9.18;79.19
10135;BME280;5107;48.850;8.924;2024-03-23T08:48:41;96257.13;;;9.03;79.25
10135;BME280;5107;48.850;8.924;2024-03-23T08:51:08;96257.50;;;8.92;78.81
10135;BME280;5107;48.850;8.924;2024-03-23T08:53:38;96268.13;;;8.98;78.99
10135;BME280;5107;48.850;8.924;2024-03-23T08:56:04;96260.69;;;9.10;74.46
10135;BME280;5107;48.850;8.924;2024-03-23T08:58:30;96276.59;;;9.08;76.43
10135;BME280;5107;48.850;8.924;2024-03-23T09:01:02;96269.97;;;9.29;74.77
10135;BME280;5107;48.850;8.924;2024-03-23T09:03:28;96286.13;;;9.63;74.52
10135;BME280;5107;48.850;8.924;2024-03-23T09:05:54;96285.97;;;9.65;70.76
10135;BME280;5107;48.850;8.924;2024-03-23T09:08:20;96293.22;;;9.85;70.30
10135;BME280;5107;48.850;8.924;2024-03-23T09:10:46;96295.13;;;9.92;69.40
10135;BME280;5107;48.850;8.924;2024-03-23T09:13:12;96302.09;;;9.84;67.73
10135;BME280;5107;48.850;8.924;2024-03-23T09:15:44;96307.94;;;9.95;67.24
10135;BME280;5107;48.850;8.924;2024-03-23T09:18:10;96299.97;;;9.57;65.34
10135;BME280;5107;48.850;8.924;2024-03-23T09:20:35;96291.63;;;9.99;65.82
10135;BME280;5107;48.850;8.924;2024-03-23T09:23:00;96314.13;;;10.02;67.82
10135;BME280;5107;48.850;8.924;2024-03-23T09:25:26;96304.13;;;9.51;59.85
10135;BME280;5107;48.850;8.924;2024-03-23T09:27:51;96310.81;;;9.23;61.61
10135;BME280;5107;48.850;8.924;2024-03-23T09:30:16;96318.09;;;9.05;61.91
10135;BME280;5107;48.850;8.924;2024-03-23T09:32:43;96315.88;;;8.94;62.79
10135;BME280;5107;48.850;8.924;2024-03-23T09:35:09;96317.03;;;8.83;62.39
10135;BME280;5107;48.850;8.924;2024-03-23T09:37:34;96312.22;;;9.03;63.81
10135;BME280;5107;48.850;8.924;2024-03-23T09:40:00;96309.00;;;9.55;63.87
10135;BME280;5107;48.850;8.924;2024-03-23T09:42:25;96316.00;;;9.70;61.27
10135;BME280;5107;48.850;8.924;2024-03-23T09:44:51;96316.53;;;9.58;60.37
10135;BME280;5107;48.850;8.924;2024-03-23T09:47:17;96310.78;;;10.08;59.64
10135;BME280;5107;48.850;8.924;2024-03-23T09:49:42;96297.47;;;10.09;59.41
10135;BME280;5107;48.850;8.924;2024-03-23T09:52:08;96313.31;;;10.24;59.48
10135;BME280;5107;48.850;8.924;2024-03-23T09:54:33;96319.63;;;10.38;57.27
10135;BME280;5107;48.850;8.924;2024-03-23T09:56:59;96318.25;;;10.56;58.70
10135;BME280;5107;48.850;8.924;2024-03-23T09:59:24;96303.44;;;10.78;57.47
10135;BME280;5107;48.850;8.924;2024-03-23T10:01:52;96304.94;;;10.43;57.63
10135;BME280;5107;48.850;8.924;2024-03-23T10:04:42;96308.13;;;10.83;57.31
10135;BME280;5107;48.850;8.924;2024-03-23T10:07:18;96296.22;;;11.16;55.01
10135;BME280;5107;48.850;8.924;2024-03-23T10:09:44;96296.78;;;11.12;54.24
10135;BME280;5107;48.850;8.924;2024-03-23T10:12:10;96298.47;;;10.08;55.82
10135;BME280;5107;48.850;8.924;2024-03-23T10:14:36;96302.69;;;10.84;54.36
10135;BME280;5107;48.850;8.924;2024-03-23T10:17:18;96299.31;;;11.20;54.35
10135;BME280;5107;48.850;8.924;2024-03-23T10:22:13;96294.81;;;10.32;54.88
10135;BME280;5107;48.850;8.924;2024-03-23T10:24:39;96288.03;;;9.46;56.91
10135;BME280;5107;48.850;8.924;2024-03-23T10:27:08;96310.41;;;9.11;59.42
10135;BME280;5107;48.850;8.924;2024-03-23T10:29:33;96319.97;;;8.88;60.86
10135;BME280;5107;48.850;8.924;2024-03-23T10:32:09;96333.84;;;8.50;63.50
10135;BME280;5107;48.850;8.924;2024-03-23T10:34:35;96357.72;;;8.06;66.34
10135;BME280;5107;48.850;8.924;2024-03-23T10:37:02;96370.63;;;7.67;70.14
10135;BME280;5107;48.850;8.924;2024-03-23T10:39:30;96379.22;;;7.43;73.26
10135;BME280;5107;48.850;8.924;2024-03-23T10:41:56;96407.47;;;6.72;79.19
10135;BME280;5107;48.850;8.924;2024-03-23T10:44:22;96406.06;;;6.16;82.68
10135;BME280;5107;48.850;8.924;2024-03-23T10:46:51;96400.72;;;5.72;84.32
10135;BME280;5107;48.850;8.924;2024-03-23T10:49:23;96408.09;;;5.32;85.82
10135;BME280;5107;48.850;8.924;2024-03-23T10:51:51;96394.94;;;5.24;87.74
10135;BME280;5107;48.850;8.924;2024-03-23T10:54:16;96369.59;;;5.61;88.30
10135;BME280;5107;48.850;8.924;2024-03-23T10:56:43;96362.50;;;5.54;87.30
10135;BME280;5107;48.850;8.924;2024-03-23T10:59:09;96362.75;;;5.78;86.96
10135;BME280;5107;48.850;8.924;2024-03-23T11:01:53;96366.88;;;6.16;87.63
10135;BME280;5107;48.850;8.924;2024-03-23T11:04:39;96356.72;;;6.13;85.49
10135;BME280;5107;48.850;8.924;2024-03-23T11:09:53;96350.66;;;7.66;83.19
10135;BME280;5107;48.850;8.924;2024-03-23T11:17:22;96342.44;;;8.91;78.58
10135;BME280;5107;48.850;8.924;2024-03-23T11:20:01;96347.09;;;8.24;79.32
10135;BME280;5107;48.850;8.924;2024-03-23T11:25:15;96334.41;;;8.92;73.93
10135;BME280;5107;48.850;8.924;2024-03-23T11:27:42;96343.84;;;9.48;73.35
10135;BME280;5107;48.850;8.924;2024-03-23T11:30:18;96344.06;;;9.70;72.03
10135;BME280;5107;48.850;8.924;2024-03-23T11:32:48;96339.69;;;9.23;68.84
10135;BME280;5107;48.850;8.924;2024-03-23T11:35:39;96346.09;;;9.29;66.87
10135;BME280;5107;48.850;8.924;2024-03-23T11:38:15;96343.75;;;8.95;64.39
10135;BME280;5107;48.850;8.924;2024-03-23T11:40:44;96348.56;;;8.67;65.29
10135;BME280;5107;48.850;8.924;2024-03-23T11:43:12;96353.47;;;8.29;62.74
10135;BME280;5107;48.850;8.924;2024-03-23T11:45:40;96335.66;;;8.33;64.12
10135;BME280;5107;48.850;8.924;2024-03-23T11:48:11;96352.84;;;8.11;64.11
10135;BME280;5107;48.850;8.924;2024-03-23T11:50:41;96337.06;;;7.79;61.77
10135;BME280;5107;48.850;8.924;2024-03-23T11:55:53;96338.91;;;8.27;61.49
10135;BME280;5107;48.850;8.924;2024-03-23T11:58:24;96339.06;;;8.66;59.54
10135;BME280;5107;48.850;8.924;2024-03-23T12:00:50;96339.81;;;8.91;59.88
10135;BME280;5107;48.850;8.924;2024-03-23T12:03:17;96334.06;;;8.87;58.50
10135;BME280;5107;48.850;8.924;2024-03-23T12:05:50;96327.38;;;9.24;59.12
10135;BME280;5107;48.850;8.924;2024-03-23T12:08:28;96326.63;;;9.07;59.61
10135;BME280;5107;48.850;8.924;2024-03-23T12:11:15;96335.31;;;9.07;59.71
10135;BME280;5107;48.850;8.924;2024-03-23T12:13:42;96321.75;;;9.35;59.73
10135;BME280;5107;48.850;8.924;2024-03-23T12:16:21;96311.94;;;9.60;60.53
10135;BME280;5107;48.850;8.924;2024-03-23T12:18:50;96305.22;;;9.57;59.84
10135;BME280;5107;48.850;8.924;2024-03-23T12:21:20;96309.00;;;9.24;60.68
10135;BME280;5107;48.850;8.924;2024-03-23T12:23:47;96308.16;;;9.31;61.96
10135;BME280;5107;48.850;8.924;2024-03-23T12:26:14;96310.97;;;9.22;60.92
10135;BME280;5107;48.850;8.924;2024-03-23T12:28:39;96298.47;;;9.01;61.30
10135;BME280;5107;48.850;8.924;2024-03-23T12:31:05;96292.28;;;8.86;61.82
10135;BME280;5107;48.850;8.924;2024-03-23T12:33:30;96306.09;;;8.63;61.31
10135;BME280;5107;48.850;8.924;2024-03-23T12:35:56;96302.81;;;8.78;60.06
10135;BME280;5107;48.850;8.924;2024-03-23T12:38:21;96306.97;;;9.65;59.62
10135;BME280;5107;48.850;8.924;2024-03-23T12:40:47;96307.94;;;9.95;59.18
10135;BME280;5107;48.850;8.924;2024-03-23T12:43:16;96321.44;;;9.30;61.30
10135;BME280;5107;48.850;8.924;2024-03-23T12:45:49;96314.88;;;8.95;60.96
10135;BME280;5107;48.850;8.924;2024-03-23T12:48:15;96311.56;;;9.01;59.52
10135;BME280;5107;48.850;8.924;2024-03-23T12:50:40;96314.19;;;9.01;58.07
10135;BME280;5107;48.850;8.924;2024-03-23T12:53:05;96302.31;;;9.13;56.88
10135;BME280;5107;48.850;8.924;2024-03-23T12:55:31;96292.47;;;9.77;54.47
10135;BME280;5107;48.850;8.924;2024-03-23T12:57:56;96294.31;;;9.06;55.97
10135;BME280;5107;48.850;8.924;2024-03-23T13:00:22;96292.09;;;9.26;56.02
10135;BME280;5107;48.850;8.924;2024-03-23T13:02:47;96296.19;;;9.60;56.29
10135;BME280;5107;48.850;8.924;2024-03-23T13:05:13;96306.63;;;9.68;54.74
10135;BME280;5107;48.850;8.924;2024-03-23T13:07:38;96298.78;;;9.37;52.99
10135;BME280;5107;48.850;8.924;2024-03-23T13:10:05;96288.03;;;9.46;53.42
10135;BME280;5107;48.850;8.924;2024-03-23T13:12:31;96295.31;;;9.90;53.63
10135;BME280;5107;48.850;8.924;2024-03-23T13:14:56;96287.66;;;9.80;53.38
10135;BME280;5107;48.850;8.924;2024-03-23T13:17:21;96280.09;;;9.85;52.22
10135;BME280;5107;48.850;8.924;2024-03-23T13:19:47;96272.50;;;9.68;52.34
10135;BME280;5107;48.850;8.924;2024-03-23T13:22:15;96262.09;;;10.20;51.05
10135;BME280;5107;48.850;8.924;2024-03-23T13:24:40;96261.69;;;9.85;51.18
10135;BME280;5107;48.850;8.924;2024-03-23T13:27:06;96254.56;;;10.46;50.66
10135;BME280;5107;48.850;8.924;2024-03-23T13:29:33;96245.91;;;10.46;51.60
10135;BME280;5107;48.850;8.924;2024-03-23T13:32:00;96253.78;;;10.08;52.12
10135;BME280;5107;48.850;8.924;2024-03-23T13:34:25;96275.47;;;9.65;53.39
10135;BME280;5107;48.850;8.924;2024-03-23T13:36:50;96282.56;;;9.33;54.68
10135;BME280;5107;48.850;8.924;2024-03-23T13:39:16;96300.34;;;8.76;58.42
10135;BME280;5107;48.850;8.924;2024-03-23T13:41:45;96317.63;;;8.38;63.84
10135;BME280;5107;48.850;8.924;2024-03-23T13:44:12;96328.00;;;7.41;69.74
10135;BME280;5107;48.850;8.924;2024-03-23T13:46:38;96314.88;;;6.82;74.15
10135;BME280;5107;48.850;8.924;2024-03-23T13:49:05;96327.28;;;6.29;76.04
10135;BME280;5107;48.850;8.924;2024-03-23T13:51:30;96342.47;;;5.72;80.52
10135;BME280;5107;48.850;8.924;2024-03-23T13:53:56;96337.91;;;5.56;81.20
10135;BME280;5107;48.850;8.924;2024-03-23T13:56:24;96328.91;;;5.51;80.33
10135;BME280;5107;48.850;8.924;2024-03-23T13:58:50;96328.59;;;5.54;81.75
10135;BME280;5107;48.850;8.924;2024-03-23T14:01:16;96339.78;;;5.64;82.43
10135;BME280;5107;48.850;8.924;2024-03-23T14:03:42;96349.84;;;5.59;82.86
10135;BME280;5107;48.850;8.924;2024-03-23T14:06:08;96352.66;;;5.48;83.28
10135;BME280;5107;48.850;8.924;2024-03-23T14:08:35;96352.88;;;5.37;85.65
10135;BME280;5107;48.850;8.924;2024-03-23T14:11:13;96342.00;;;5.41;87.56
10135;BME280;5107;48.850;8.924;2024-03-23T14:13:38;96339.84;;;5.54;87.24
10135;BME280;5107;48.850;8.924;2024-03-23T14:16:04;96325.31;;;5.69;86.55
10135;BME280;5107;48.850;8.924;2024-03-23T14:18:30;96316.50;;;6.24;86.03
10135;BME280;5107;48.850;8.924;2024-03-23T14:20:59;96297.69;;;6.80;84.18
10135;BME280;5107;48.850;8.924;2024-03-23T14:23:29;96279.06;;;7.17;80.90